Time;durP1;ratioP1;P1;durP2;ratioP2;P2;SDS_P1;SDS_P2;PMS_P1;PMS_P2;Temp;Humidity;BMP_temperature;BMP_pressure;BME280_temperature;BME280_humidity;BME280_pressure;Samples;Min_cycle;Max_cycle;Signal;HPM_P1;HPM_P2
2022/04/05 00:01:48;;;;;;;13.80;9.75;;;3.80;82.90;;;2.23;84.54;95510.63;4904392;28;20411;-64
2022/04/05 00:04:14;;;;;;;14.55;10.98;;;3.80;83.00;;;2.22;84.55;95512.41;4872728;28;20353;-64
2022/04/05 00:06:40;;;;;;;15.13;10.70;;;3.80;82.80;;;2.21;84.69;95505.59;4888988;28;20423;-64
2022/04/05 00:09:07;;;;;;;15.93;10.00;;;3.80;82.20;;;2.21;84.49;95515.16;4869561;28;20582;-64
2022/04/05 00:11:33;;;;;;;16.38;11.00;;;3.70;82.60;;;2.19;84.77;95522.28;4920321;28;20480;-64
2022/04/05 00:14:02;;;;;;;15.07;9.45;;;3.70;83.00;;;2.18;84.60;95521.47;4873972;28;20581;-63
2022/04/05 00:16:28;;;;;;;13.68;9.98;;;3.70;83.00;;;2.20;84.87;95493.59;4890861;28;20449;-64
2022/04/05 00:18:54;;;;;;;12.82;9.07;;;3.80;82.60;;;2.21;85.13;95510.78;4906630;28;20427;-64
2022/04/05 00:21:20;;;;;;;12.55;8.85;;;3.80;82.30;;;2.22;85.06;95502.03;4927367;28;20355;-65
2022/04/05 00:23:46;;;;;;;13.35;9.18;;;3.80;82.40;;;2.22;84.49;95481.28;4879639;28;20433;-64
2022/04/05 00:26:12;;;;;;;13.98;9.45;;;3.90;82.20;;;2.22;84.81;95483.88;4881393;28;20352;-64
2022/04/05 00:28:38;;;;;;;12.30;9.15;;;3.80;82.00;;;2.25;84.92;95486.16;4871787;28;20312;-64
2022/04/05 00:31:05;;;;;;;13.95;10.00;;;3.90;81.70;;;2.28;84.43;95485.06;4903849;28;20318;-64
2022/04/05 00:33:31;;;;;;;12.07;9.02;;;3.90;81.70;;;2.27;84.80;95494.63;4907490;28;20441;-64
2022/04/05 00:35:57;;;;;;;12.70;9.05;;;3.90;81.70;;;2.26;84.57;95477.41;4874165;28;20540;-64
2022/04/05 00:38:24;;;;;;;13.02;8.95;;;3.80;81.90;;;2.27;84.92;95473.88;4890788;28;20340;-65
2022/04/05 00:40:50;;;;;;;11.10;8.38;;;3.80;82.00;;;2.27;84.95;95468.69;4890869;28;20351;-63
2022/04/05 00:43:16;;;;;;;11.88;8.65;;;3.80;81.80;;;2.26;84.54;95461.81;4890409;28;21001;-64
2022/04/05 00:45:42;;;;;;;12.85;8.27;;;3.80;81.70;;;2.28;84.81;95472.91;4873084;28;20331;-64
2022/04/05 00:48:08;;;;;;;12.82;8.90;;;3.90;81.70;;;2.30;84.64;95463.19;4907104;28;20433;-65
2022/04/05 00:50:38;;;;;;;11.23;7.80;;;4.00;81.50;;;2.31;84.39;95459.63;4883154;28;20351;-64
2022/04/05 00:53:07;;;;;;;10.18;7.93;;;3.90;81.30;;;2.31;84.60;95464.81;4905726;28;20454;-63
2022/04/05 00:55:33;;;;;;;11.98;7.68;;;3.90;81.00;;;2.32;84.15;95448.25;4932976;28;20438;-64
2022/04/05 00:58:02;;;;;;;10.65;7.55;;;3.90;80.90;;;2.33;84.68;95447.28;4902932;28;20456;-64
2022/04/05 01:00:28;;;;;;;11.73;7.85;;;3.90;80.50;;;2.32;83.96;95450.84;4891188;28;20572;-64
2022/04/05 01:02:54;;;;;;;12.50;7.70;;;3.90;80.50;;;2.33;84.50;95447.28;4871380;28;20204;-63
2022/04/05 01:05:20;;;;;;;11.38;7.40;;;3.90;80.90;;;2.32;83.96;95456.03;4887379;28;20439;-66
2022/04/05 01:07:47;;;;;;;10.55;7.32;;;3.80;80.50;;;2.32;84.14;95444.84;4876611;28;20581;-64
2022/04/05 01:10:13;;;;;;;11.93;7.57;;;3.80;81.00;;;2.31;84.48;95446.63;4929671;28;20859;-64
2022/04/05 01:12:39;;;;;;;11.10;7.80;;;3.80;81.20;;;2.31;84.36;95448.41;4891401;28;20495;-64
2022/04/05 01:15:06;;;;;;;10.60;7.65;;;3.90;80.90;;;2.32;84.16;95450.84;4905123;28;20722;-65
2022/04/05 01:17:33;;;;;;;9.48;6.78;;;3.90;81.00;;;2.31;83.94;95456.19;4873138;28;20390;-64
2022/04/05 01:20:00;;;;;;;8.57;6.82;;;3.90;81.30;;;2.31;84.29;95444.03;4894373;28;20476;-63
2022/04/05 01:22:26;;;;;;;9.07;6.97;;;3.90;80.80;;;2.31;84.46;95440.63;4874252;28;20514;-63
2022/04/05 01:24:52;;;;;;;8.38;6.55;;;3.80;80.90;;;2.32;84.58;95450.03;4890689;28;20295;-63
2022/04/05 01:27:18;;;;;;;9.65;7.03;;;3.90;80.90;;;2.33;83.88;95429.13;4885540;28;20517;-66
2022/04/05 01:29:45;;;;;;;11.05;6.70;;;3.90;80.30;;;2.34;84.26;95433.34;4896233;28;20444;-63
2022/04/05 01:32:11;;;;;;;10.48;7.10;;;4.00;80.30;;;2.37;83.69;95427.84;4882965;28;20211;-64
2022/04/05 01:34:38;;;;;;;8.55;6.68;;;4.00;80.50;;;2.37;83.55;95422.66;4906235;28;20387;-63
2022/04/05 01:37:10;;;;;;;9.82;6.97;;;4.00;80.20;;;2.37;84.42;95433.03;4906359;28;20612;-63
2022/04/05 01:39:37;;;;;;;9.10;6.55;;;4.00;80.50;;;2.36;84.09;95467.75;4921569;28;20777;-64
2022/04/05 01:42:06;;;;;;;9.00;6.82;;;4.00;80.70;;;2.32;84.18;95427.50;4891482;28;20367;-63
2022/04/05 01:44:33;;;;;;;9.82;7.10;;;3.90;81.10;;;2.33;84.88;95421.34;4891365;28;20611;-63
2022/04/05 01:47:10;;;;;;;11.07;7.05;;;3.90;80.90;;;2.31;85.64;95412.91;4876652;28;20304;-63
2022/04/05 01:49:37;;;;;;;11.32;6.97;;;3.90;81.40;;;2.29;84.63;95417.44;4887124;28;20988;-64
2022/04/05 01:52:04;;;;;;;10.02;6.88;;;3.80;81.30;;;2.29;84.75;95429.59;4895574;28;20173;-63
2022/04/05 01:54:30;;;;;;;8.10;6.15;;;3.90;80.90;;;2.29;84.55;95414.84;4891241;28;20343;-63
2022/04/05 01:56:56;;;;;;;11.13;7.03;;;3.90;80.90;;;2.32;84.55;95408.53;4910672;28;20489;-63
2022/04/05 01:59:27;;;;;;;8.93;6.63;;;4.00;80.70;;;2.32;84.16;95403.34;4893728;28;20314;-63
2022/04/05 02:01:54;;;;;;;8.13;5.85;;;3.90;80.30;;;2.31;84.21;95418.09;4908822;28;20072;-63
2022/04/05 02:04:20;;;;;;;10.05;6.32;;;3.90;80.10;;;2.33;83.68;95408.38;4888401;28;20278;-65
2022/04/05 02:06:46;;;;;;;8.27;6.60;;;3.90;80.20;;;2.34;83.33;95410.00;4939679;23;20361;-66
2022/04/05 02:09:14;;;;;;;10.43;6.55;;;4.00;79.90;;;2.36;83.77;95405.47;4893817;28;20482;-65
2022/04/05 02:11:45;;;;;;;10.50;6.65;;;4.00;79.70;;;2.38;83.65;95387.13;4887738;28;20454;-65
2022/04/05 02:14:12;;;;;;;9.55;6.85;;;4.00;79.10;;;2.38;83.65;95377.56;4901041;28;20339;-65
2022/04/05 02:16:38;;;;;;;9.13;6.78;;;3.90;79.20;;;2.39;82.95;95384.38;4870637;28;20119;-65
2022/04/05 02:19:04;;;;;;;8.10;6.05;;;4.00;78.90;;;2.43;82.60;95380.50;4838075;28;20285;-67
2022/04/05 02:21:30;;;;;;;10.13;6.53;;;4.10;79.00;;;2.44;82.76;95384.72;4862677;28;20484;-66
2022/04/05 02:23:56;;;;;;;7.93;6.07;;;4.10;78.70;;;2.46;82.56;95382.78;4850726;28;20607;-66
2022/04/05 02:26:22;;;;;;;8.40;6.38;;;4.10;78.50;;;2.47;82.14;95384.41;4886594;28;20326;-66
2022/04/05 02:28:48;;;;;;;10.30;7.15;;;4.10;78.20;;;2.49;82.20;95373.06;4850121;28;20437;-65
2022/04/05 02:31:15;;;;;;;9.65;6.30;;;4.10;78.00;;;2.52;82.01;95352.81;4881181;28;20638;-65
2022/04/05 02:33:41;;;;;;;8.75;5.90;;;4.20;78.00;;;2.53;82.01;95364.00;4837952;28;20334;-65
2022/04/05 02:36:08;;;;;;;7.85;6.10;;;4.20;77.60;;;2.55;81.59;95373.25;4862451;28;20345;-66
2022/04/05 02:38:34;;;;;;;9.20;6.05;;;4.10;77.50;;;2.58;81.88;95377.31;4863851;28;20483;-65
2022/04/05 02:41:04;;;;;;;12.13;8.15;;;4.20;77.50;;;2.60;81.82;95372.78;4866197;28;20431;-65
2022/04/05 02:43:30;;;;;;;9.82;6.90;;;4.30;77.60;;;2.62;81.40;95355.25;4868287;28;20390;-65
2022/04/05 02:45:56;;;;;;;8.30;6.03;;;4.20;76.90;;;2.64;81.43;95363.69;4871105;28;20364;-66
2022/04/05 02:48:25;;;;;;;10.63;6.78;;;4.30;77.00;;;2.67;80.89;95371.16;4904141;28;20489;-66
2022/04/05 02:50:51;;;;;;;8.60;5.88;;;4.30;76.20;;;2.68;81.02;95375.38;4879407;28;20442;-66
2022/04/05 02:53:18;;;;;;;7.90;5.60;;;4.40;76.10;;;2.71;80.49;95367.28;4852058;28;20357;-66
2022/04/05 02:55:45;;;;;;;8.32;5.35;;;4.40;76.30;;;2.73;80.47;95375.75;4860162;28;20369;-66
2022/04/05 02:58:11;;;;;;;7.50;6.00;;;4.40;75.70;;;2.75;80.23;95381.59;4854657;28;20588;-66
2022/04/05 03:00:37;;;;;;;10.45;6.22;;;4.40;75.60;;;2.78;79.70;95373.47;4870080;28;20364;-66
2022/04/05 03:03:04;;;;;;;9.13;5.82;;;4.50;74.80;;;2.82;79.62;95374.78;4866883;28;20312;-67
2022/04/05 03:05:30;;;;;;;8.75;5.38;;;4.50;75.00;;;2.86;79.41;95368.31;4866478;28;20877;-67
2022/04/05 03:07:56;;;;;;;8.23;5.63;;;4.60;74.70;;;2.89;79.28;95369.75;4872585;28;20367;-67
2022/04/05 03:10:22;;;;;;;8.40;5.75;;;4.60;74.00;;;2.93;79.17;95366.69;4885330;28;20876;-67
2022/04/05 03:12:48;;;;;;;8.25;5.38;;;4.60;73.80;;;2.95;78.79;95372.56;4882480;28;20480;-67
2022/04/05 03:15:14;;;;;;;7.55;5.68;;;4.70;73.00;;;2.99;77.55;95365.25;4857131;28;20220;-67
2022/04/05 03:17:44;;;;;;;9.35;6.70;;;4.70;72.90;;;3.02;78.15;95360.53;4872251;28;20404;-67
2022/04/05 03:20:12;;;;;;;10.57;7.28;;;4.70;73.00;;;3.06;77.74;95346.25;4850908;28;20478;-67
2022/04/05 03:22:42;;;;;;;6.70;5.07;;;4.70;72.60;;;3.08;77.32;95349.50;4887963;28;20481;-67
2022/04/05 03:25:09;;;;;;;7.40;5.03;;;4.70;72.20;;;3.12;77.39;95341.38;4887865;28;20675;-67
2022/04/05 03:27:42;;;;;;;9.05;5.75;;;4.80;72.40;;;3.14;76.96;95329.03;4866251;28;20357;-67
2022/04/05 03:30:09;;;;;;;8.15;5.70;;;4.80;72.50;;;3.14;77.06;95329.03;4864113;28;20353;-67
2022/04/05 03:32:36;;;;;;;7.68;5.75;;;4.80;72.40;;;3.17;76.97;95326.94;4883234;28;20557;-67
2022/04/05 03:35:03;;;;;;;7.18;5.03;;;4.80;72.40;;;3.17;76.94;95336.50;4870164;28;20354;-66
2022/04/05 03:37:29;;;;;;;7.53;5.35;;;4.80;72.50;;;3.19;76.57;95326.78;4869283;28;20360;-67
2022/04/05 03:39:55;;;;;;;8.88;5.10;;;4.80;71.80;;;3.20;76.67;95328.41;4867331;28;20511;-67
2022/04/05 03:42:21;;;;;;;7.97;5.43;;;4.80;72.00;;;3.23;76.39;95333.28;4885895;28;20307;-68
2022/04/05 03:44:47;;;;;;;9.85;6.65;;;4.90;71.80;;;3.24;76.35;95319.31;4843418;28;20364;-68
2022/04/05 03:47:13;;;;;;;7.32;5.32;;;4.90;71.70;;;3.25;75.96;95319.16;4864824;28;20549;-69
2022/04/05 03:49:39;;;;;;;7.82;5.35;;;4.90;71.50;;;3.26;76.20;95319.97;4845666;28;20708;-69
2022/04/05 03:52:06;;;;;;;7.93;4.95;;;4.90;72.20;;;3.26;75.87;95314.75;4854590;28;20337;-68
2022/04/05 03:54:32;;;;;;;7.75;5.28;;;5.00;72.00;;;3.27;76.05;95324.19;4879319;28;20268;-69
2022/04/05 03:56:58;;;;;;;7.88;5.50;;;4.90;71.80;;;3.28;76.37;95328.41;4881902;28;20361;-67
2022/04/05 03:59:25;;;;;;;8.98;5.78;;;4.90;72.50;;;3.26;76.25;95325.16;4850060;28;20333;-68
2022/04/05 04:01:50;;;;;;;8.13;5.57;;;4.90;72.60;;;3.27;76.41;95331.97;4853401;28;20703;-68
2022/04/05 04:04:16;;;;;;;6.80;4.82;;;4.90;72.80;;;3.26;76.04;95330.34;4868980;28;20726;-67
2022/04/05 04:06:42;;;;;;;7.47;5.53;;;5.00;72.00;;;3.28;76.08;95333.59;4866271;28;20498;-68
2022/04/05 04:09:11;;;;;;;8.80;5.55;;;4.90;72.20;;;3.29;75.76;95330.03;4850536;28;20573;-67
2022/04/05 04:11:40;;;;;;;6.35;4.95;;;5.00;71.50;;;3.30;75.80;95336.84;4853944;28;20459;-67
2022/04/05 04:14:07;;;;;;;7.93;5.70;;;5.00;71.50;;;3.31;75.41;95330.66;4866282;28;20493;-66
2022/04/05 04:16:34;;;;;;;8.63;5.60;;;4.90;71.20;;;3.32;75.39;95324.50;4859666;28;20492;-68
2022/04/05 04:19:00;;;;;;;7.93;5.45;;;5.00;71.60;;;3.33;75.54;95331.31;4847255;28;20360;-67
2022/04/05 04:21:26;;;;;;;8.57;5.38;;;5.00;71.60;;;3.33;75.53;95326.13;4882772;28;20331;-66
2022/04/05 04:23:52;;;;;;;8.30;5.85;;;5.00;71.50;;;3.33;75.50;95333.91;4851830;28;20211;-66
2022/04/05 04:26:18;;;;;;;8.25;5.38;;;4.90;71.80;;;3.32;75.75;95319.28;4866325;28;20508;-66
2022/04/05 04:28:49;;;;;;;11.55;6.35;;;5.00;72.20;;;3.32;76.21;95329.69;4851680;28;20332;-66
2022/04/05 04:31:15;;;;;;;8.38;5.43;;;5.00;73.10;;;3.28;75.97;95339.59;4872408;28;20451;-66
2022/04/05 04:33:41;;;;;;;7.88;5.80;;;4.90;73.50;;;3.24;76.49;95321.91;4891455;28;20744;-68
2022/04/05 04:36:07;;;;;;;10.77;6.00;;;4.70;74.70;;;3.20;76.90;95337.03;4866018;28;20721;-67
2022/04/05 04:38:33;;;;;;;8.93;6.32;;;4.70;74.80;;;3.17;77.53;95323.50;4853845;28;20418;-67
2022/04/05 04:40:59;;;;;;;8.82;6.25;;;4.70;75.70;;;3.13;77.98;95330.00;4867323;28;20440;-67
2022/04/05 04:43:27;;;;;;;10.55;7.38;;;4.70;76.40;;;3.10;78.26;95319.94;4866283;28;20354;-67
2022/04/05 04:45:53;;;;;;;8.77;6.65;;;4.60;76.40;;;3.07;78.41;95328.88;4853520;28;20414;-67
2022/04/05 04:48:20;;;;;;;11.82;7.03;;;4.60;76.40;;;3.03;78.89;95328.41;4886389;28;20331;-67
2022/04/05 04:50:49;;;;;;;9.32;7.15;;;4.60;76.40;;;3.02;79.51;95329.38;4864420;28;20498;-69
2022/04/05 04:53:15;;;;;;;10.68;7.25;;;4.60;77.40;;;3.01;79.12;95322.56;4949223;28;20373;-66
2022/04/05 04:55:41;;;;;;;11.85;7.45;;;4.60;77.70;;;3.00;79.37;95317.53;4995501;28;20087;-65
2022/04/05 04:58:07;;;;;;;9.75;7.20;;;4.60;77.30;;;2.96;79.64;95324.81;5002473;28;20095;-65
2022/04/05 05:00:33;;;;;;;9.05;6.70;;;4.60;77.50;;;2.95;79.95;95322.38;4970509;28;20030;-65
2022/04/05 05:02:59;;;;;;;10.30;7.55;;;4.50;77.40;;;2.94;79.89;95320.75;4972102;28;20042;-65
2022/04/05 05:05:25;;;;;;;10.07;7.25;;;4.60;77.90;;;2.94;80.64;95331.97;4973079;28;20041;-65
2022/04/05 05:07:51;;;;;;;12.30;8.90;;;4.60;77.20;;;2.95;80.00;95323.19;4957005;28;20057;-65
2022/04/05 05:10:18;;;;;;;11.25;7.43;;;4.60;77.40;;;2.97;80.11;95334.25;5005171;28;20053;-65
2022/04/05 05:12:44;;;;;;;10.95;8.13;;;4.60;76.50;;;2.97;79.77;95336.03;4996911;28;20046;-65
2022/04/05 05:15:18;;;;;;;9.82;7.60;;;4.60;76.70;;;2.99;80.83;95339.28;4986669;28;20103;-65
2022/04/05 05:17:45;;;;;;;11.27;7.65;;;4.60;76.90;;;2.98;80.22;95333.28;4989906;28;20057;-65
2022/04/05 05:20:12;;;;;;;13.48;8.02;;;4.70;76.80;;;2.99;80.15;95329.69;4989747;28;20060;-66
2022/04/05 05:22:39;;;;;;;10.38;7.75;;;4.60;77.30;;;2.98;79.97;95348.84;4973610;28;20037;-65
2022/04/05 05:25:05;;;;;;;11.38;7.70;;;4.60;77.10;;;2.98;80.43;95341.06;4996295;28;20033;-65
2022/04/05 05:27:31;;;;;;;11.60;7.90;;;4.60;77.70;;;2.99;80.66;95334.06;4997459;28;20028;-66
2022/04/05 05:29:57;;;;;;;10.25;7.72;;;4.70;77.20;;;3.02;80.53;95344.16;4969315;28;20568;-66
2022/04/05 05:32:23;;;;;;;11.95;8.05;;;4.70;76.70;;;3.03;80.38;95348.38;4990156;28;20246;-66
2022/04/05 05:34:48;;;;;;;13.00;8.15;;;4.70;76.20;;;3.03;79.97;95351.78;4978204;28;20042;-66
2022/04/05 05:37:14;;;;;;;10.23;7.95;;;4.70;77.10;;;3.03;80.50;95341.38;4959255;28;20120;-66
2022/04/05 05:39:40;;;;;;;12.38;8.52;;;4.70;77.60;;;3.04;80.72;95348.19;4936445;28;20125;-66
2022/04/05 05:42:06;;;;;;;11.82;8.20;;;4.70;77.10;;;3.04;81.24;95366.38;4969822;28;20029;-65
2022/04/05 05:44:32;;;;;;;10.48;7.80;;;4.70;77.60;;;3.05;80.19;95357.63;4945722;28;20042;-65
2022/04/05 05:46:58;;;;;;;11.35;7.97;;;4.70;77.30;;;3.05;80.95;95362.00;4981379;28;20038;-65
2022/04/05 05:49:24;;;;;;;10.55;7.47;;;4.70;76.50;;;3.02;80.88;95368.34;4992572;28;20136;-65
2022/04/05 05:51:50;;;;;;;11.57;8.68;;;4.60;78.00;;;3.02;81.32;95365.75;4988642;28;20497;-66
2022/04/05 05:54:16;;;;;;;12.57;9.10;;;4.60;77.90;;;2.99;81.19;95373.84;4961581;28;20756;-64
2022/04/05 05:56:42;;;;;;;11.25;7.80;;;4.60;78.20;;;2.98;81.61;95380.03;4989419;28;20081;-65
2022/04/05 05:59:08;;;;;;;10.35;7.47;;;4.60;78.20;;;2.99;81.62;95384.25;4976630;28;20042;-65
2022/04/05 06:01:34;;;;;;;13.10;8.68;;;4.70;78.90;;;2.99;81.87;95380.84;4996491;28;20045;-66
2022/04/05 06:04:00;;;;;;;12.07;8.30;;;4.60;79.30;;;2.98;82.54;95377.44;4984612;28;20065;-65
2022/04/05 06:06:28;;;;;;;12.68;8.50;;;4.60;79.30;;;2.97;82.37;95380.19;4976687;28;20561;-65
2022/04/05 06:08:57;;;;;;;9.77;7.70;;;4.60;79.20;;;2.98;83.01;95389.59;4985915;28;20326;-66
2022/04/05 06:11:23;;;;;;;10.23;7.75;;;4.60;79.00;;;2.97;83.14;95394.00;4969494;28;20110;-66
2022/04/05 06:13:50;;;;;;;10.07;8.30;;;4.60;79.20;;;2.94;83.15;95389.13;4958400;28;20200;-65
2022/04/05 06:16:15;;;;;;;10.63;7.82;;;4.60;79.90;;;2.91;83.23;95389.41;4968706;28;20038;-66
2022/04/05 06:18:47;;;;;;;12.40;8.73;;;4.50;80.10;;;2.90;83.72;95403.38;4993366;28;20164;-65
2022/04/05 06:21:16;;;;;;;;;;;4.50;80.80;;;2.87;86.19;95405.47;4955892;28;20561;-65
2022/04/05 06:23:41;;;;;;;13.80;9.13;;;4.50;81.00;;;2.85;83.90;95404.81;4968877;28;19928;-65
2022/04/05 06:26:07;;;;;;;13.43;9.45;;;4.50;81.30;;;2.83;84.66;95407.56;4970502;28;20073;-65
2022/04/05 06:28:33;;;;;;;13.63;8.85;;;4.50;81.20;;;2.83;84.26;95407.56;4964942;28;20143;-65
2022/04/05 06:30:59;;;;;;;12.43;8.90;;;4.50;80.70;;;2.83;84.25;95404.97;4989018;28;20604;-65
2022/04/05 06:33:24;;;;;;;10.98;8.23;;;4.50;80.70;;;2.83;84.58;95399.78;5005453;28;20107;-66
2022/04/05 06:35:53;;;;;;;14.18;9.40;;;4.50;80.80;;;2.87;84.92;95408.06;4986888;28;20044;-65
2022/04/05 06:38:19;;;;;;;14.27;9.57;;;4.60;80.30;;;2.89;85.07;95401.75;4978542;28;20486;-66
2022/04/05 06:40:45;;;;;;;14.23;9.32;;;4.60;80.50;;;2.93;84.72;95400.44;4985378;28;20042;-66
2022/04/05 06:43:12;;;;;;;13.35;9.50;;;4.60;80.10;;;2.97;85.19;95403.56;4985288;28;20068;-66
2022/04/05 06:45:37;;;;;;;12.27;9.40;;;4.70;80.80;;;2.99;85.00;95392.03;4954707;28;20045;-65
2022/04/05 06:48:05;;;;;;;15.63;10.05;;;4.70;80.20;;;3.01;85.07;95405.69;4971806;28;20049;-65
2022/04/05 06:50:30;;;;;;;10.95;9.15;;;4.70;80.40;;;3.04;84.65;95396.75;4969363;28;20121;-66
2022/04/05 06:52:57;;;;;;;13.88;9.57;;;4.70;79.70;;;3.06;84.93;95397.41;4971403;28;20033;-66
2022/04/05 06:55:24;;;;;;;14.23;10.25;;;4.80;79.70;;;3.08;84.56;95406.66;4971464;28;20042;-65
2022/04/05 06:57:49;;;;;;;13.05;9.88;;;4.80;79.90;;;3.13;85.23;95413.16;4996280;28;20033;-65
2022/04/05 07:00:18;;;;;;;14.18;9.68;;;4.90;80.00;;;3.15;84.93;95393.03;4978432;28;20037;-65
2022/04/05 07:02:43;;;;;;;14.05;9.63;;;4.90;79.60;;;3.17;84.77;95399.72;4988760;28;20121;-65
2022/04/05 07:05:12;;;;;;;15.90;9.73;;;4.90;79.40;;;3.17;84.75;95409.25;4971316;28;20535;-65
2022/04/05 07:07:41;;;;;;;14.68;10.10;;;4.90;79.50;;;3.18;85.22;95401.34;4974908;28;20042;-65
2022/04/05 07:10:09;;;;;;;15.20;10.18;;;4.90;79.40;;;3.22;84.73;95404.41;4988155;28;20026;-65
2022/04/05 07:12:35;;;;;;;15.77;10.85;;;4.90;78.90;;;3.24;84.59;95407.66;4990109;28;20037;-65
2022/04/05 07:15:00;;;;;;;15.93;11.55;;;4.90;79.40;;;3.27;84.79;95400.34;4982231;28;20242;-65
2022/04/05 07:17:26;;;;;;;14.02;10.25;;;5.10;79.10;;;3.31;84.10;95400.84;4987974;28;20446;-65
2022/04/05 07:19:52;;;;;;;12.07;9.27;;;5.10;78.70;;;3.34;84.32;95401.31;4955264;28;20096;-65
2022/04/05 07:22:19;;;;;;;11.88;9.00;;;5.10;78.50;;;3.37;84.07;95401.00;4971545;28;20488;-65
2022/04/05 07:24:46;;;;;;;12.35;9.02;;;5.10;78.80;;;3.41;84.06;95406.72;4958216;28;20507;-65
2022/04/05 07:27:12;;;;;;;11.77;9.15;;;5.10;78.40;;;3.45;84.19;95405.41;4961446;28;20061;-65
2022/04/05 07:29:38;;;;;;;13.65;9.25;;;5.30;78.90;;;3.50;84.58;95395.34;4975394;28;20029;-65
2022/04/05 07:32:05;;;;;;;11.60;9.18;;;5.40;78.90;;;3.55;84.32;95402.63;4971750;28;20033;-65
2022/04/05 07:34:30;;;;;;;12.35;9.00;;;5.40;78.50;;;3.60;84.76;95395.97;4968866;28;20088;-65
2022/04/05 07:36:56;;;;;;;12.23;8.75;;;5.50;78.70;;;3.64;84.75;95386.88;4966918;28;20061;-66
2022/04/05 07:39:23;;;;;;;12.55;8.38;;;5.50;78.10;;;3.68;84.32;95395.97;4955220;28;20122;-65
2022/04/05 07:41:49;;;;;;;13.55;8.65;;;5.60;78.50;;;3.73;84.37;95390.28;4987145;28;20046;-65
2022/04/05 07:44:15;;;;;;;14.70;8.88;;;5.60;78.30;;;3.77;84.52;95386.38;4970696;28;20196;-66
2022/04/05 07:46:41;;;;;;;11.50;8.20;;;5.60;78.30;;;3.84;84.63;95394.31;4968063;28;20033;-65
2022/04/05 07:49:06;;;;;;;18.17;10.23;;;5.80;78.20;;;3.92;84.69;95389.13;5006874;28;20040;-65
2022/04/05 07:51:32;;;;;;;12.30;8.27;;;5.90;78.10;;;3.97;84.21;95381.63;4985983;28;20514;-65
2022/04/05 07:53:58;;;;;;;10.45;7.28;;;5.90;78.00;;;4.01;83.99;95385.53;4979799;28;20140;-65
2022/04/05 07:56:24;;;;;;;10.85;7.85;;;5.90;77.60;;;4.07;84.55;95384.03;4995136;28;20082;-65
2022/04/05 07:58:49;;;;;;;10.70;8.02;;;6.00;78.20;;;4.09;84.08;95395.94;4989396;28;20112;-65
2022/04/05 08:01:18;;;;;;;12.63;7.97;;;5.90;77.40;;;4.13;83.83;95394.63;4988327;28;20568;-65
2022/04/05 08:03:44;;;;;;;10.93;7.10;;;5.90;77.60;;;4.18;83.92;95388.91;4956119;28;20056;-66
2022/04/05 08:06:10;;;;;;;9.43;7.28;;;6.10;77.10;;;4.22;84.39;95400.59;4970835;28;20086;-65
2022/04/05 08:08:36;;;;;;;9.13;7.53;;;6.10;77.00;;;4.22;83.98;95396.22;4986822;28;20561;-64
2022/04/05 08:11:02;;;;;;;13.07;7.85;;;6.00;76.70;;;4.27;83.89;95393.91;4979238;28;20053;-63
2022/04/05 08:13:27;;;;;;;13.85;7.50;;;6.10;77.60;;;4.34;83.54;95398.47;4954950;28;20111;-64
2022/04/05 08:15:54;;;;;;;10.05;7.38;;;6.20;76.90;;;4.40;83.17;95390.78;4953294;28;20128;-64
2022/04/05 08:18:21;;;;;;;10.68;7.97;;;6.30;76.80;;;4.45;83.37;95390.28;4979719;28;20030;-64
2022/04/05 08:20:47;;;;;;;12.20;7.40;;;6.30;75.90;;;4.51;83.57;95389.59;4984917;28;20160;-65
2022/04/05 08:23:13;;;;;;;12.77;7.88;;;6.50;76.50;;;4.55;83.31;95401.34;4974313;28;20041;-65
2022/04/05 08:25:39;;;;;;;7.97;6.40;;;6.50;76.30;;;4.57;83.24;95404.56;4956481;28;20041;-64
2022/04/05 08:28:05;;;;;;;9.52;6.97;;;6.40;75.60;;;4.58;82.75;95408.81;4969333;28;20037;-64
2022/04/05 08:30:30;;;;;;;9.10;6.50;;;6.40;75.60;;;4.61;82.14;95400.66;4974769;28;20045;-64
2022/04/05 08:32:56;;;;;;;9.45;6.25;;;6.40;75.30;;;4.63;82.12;95403.09;4994809;28;20068;-64
2022/04/05 08:35:22;;;;;;;9.07;6.40;;;6.40;75.20;;;4.65;82.24;95403.72;4953933;28;20041;-64
2022/04/05 08:37:51;;;;;;;16.38;6.75;;;6.40;76.10;;;4.68;83.15;95412.00;4979050;28;20025;-64
2022/04/05 08:40:18;;;;;;;11.43;7.38;;;6.60;76.10;;;4.71;82.56;95411.66;4940406;28;20464;-64
2022/04/05 08:42:47;;;;;;;17.80;7.40;;;6.60;75.60;;;4.73;83.16;95414.91;4951739;28;20029;-64
2022/04/05 08:45:13;;;;;;;10.85;6.22;;;6.50;75.80;;;4.73;81.92;95414.09;4989255;28;20060;-64
2022/04/05 08:47:54;;;;;;;14.77;6.80;;;6.50;76.00;;;4.75;82.64;95419.94;4969026;28;20340;-64
2022/04/05 08:50:32;;;;;;;9.98;6.85;;;6.60;76.10;;;4.74;82.98;95421.72;4959136;28;20041;-64
2022/04/05 08:53:01;;;;;;;8.63;6.35;;;6.60;76.40;;;4.74;83.09;95416.53;4965509;28;20049;-64
2022/04/05 08:55:28;;;;;;;8.98;6.32;;;6.50;76.10;;;4.75;82.41;95422.56;4953798;28;20108;-64
2022/04/05 08:57:57;;;;;;;8.23;6.57;;;6.50;76.20;;;4.74;82.23;95426.94;4969611;28;20030;-64
2022/04/05 09:00:23;;;;;;;10.70;7.28;;;6.60;75.80;;;4.79;82.51;95429.06;4990903;28;20469;-64
2022/04/05 09:02:59;;;;;;;6.88;5.88;;;6.60;75.70;;;4.78;82.05;95428.25;4986077;28;20037;-64
2022/04/05 09:05:35;;;;;;;11.75;6.57;;;6.60;75.70;;;4.80;82.17;95434.09;4970102;28;20046;-66
2022/04/05 09:08:16;;;;;;;9.45;6.50;;;6.60;76.00;;;4.82;81.91;95424.31;4964761;28;20045;-64
2022/04/05 09:10:43;;;;;;;11.68;6.15;;;6.60;75.00;;;4.83;81.54;95431.16;4986137;28;20108;-64
2022/04/05 09:13:12;;;;;;;9.43;6.75;;;6.60;75.40;;;4.87;81.52;95427.22;5002602;28;20045;-64
2022/04/05 09:15:40;;;;;;;9.38;6.50;;;6.70;75.50;;;4.91;81.81;95431.13;4971280;28;20033;-64
2022/04/05 09:18:06;;;;;;;9.32;6.78;;;6.80;75.00;;;4.93;81.75;95442.19;4973575;28;20081;-64
2022/04/05 09:20:48;;;;;;;9.15;6.53;;;6.70;75.10;;;4.99;81.15;95430.28;4972555;28;20061;-65
2022/04/05 09:23:34;;;;;;;7.78;6.25;;;6.80;75.00;;;5.06;81.98;95435.63;4984966;28;20058;-64
2022/04/05 09:26:07;;;;;;;10.27;6.97;;;7.00;75.00;;;5.12;81.01;95440.94;4952337;28;20121;-64
2022/04/05 09:28:40;;;;;;;11.85;6.63;;;7.10;74.40;;;5.20;82.28;95442.69;4954513;28;20037;-64
2022/04/05 09:31:08;;;;;;;9.55;6.70;;;7.20;74.40;;;5.28;81.69;95434.84;4996604;28;20436;-64
2022/04/05 09:33:36;;;;;;;10.15;7.25;;;7.30;74.20;;;5.35;81.56;95433.16;4972238;28;20033;-64
2022/04/05 09:36:14;;;;;;;11.07;6.95;;;7.40;74.10;;;5.45;81.97;95435.56;4952872;28;20026;-64
2022/04/05 09:38:42;;;;;;;13.98;7.70;;;7.50;73.80;;;5.47;81.62;95434.38;4987370;28;20041;-64
2022/04/05 09:41:30;;;;;;;10.88;7.13;;;7.40;74.40;;;5.52;81.25;95426.84;4961887;28;20041;-64
2022/04/05 09:44:01;;;;;;;10.90;7.53;;;7.40;74.40;;;5.56;80.94;95435.13;4956648;28;20038;-64
2022/04/05 09:46:28;;;;;;;9.18;7.05;;;7.40;73.90;;;5.55;81.00;95425.69;4987989;28;20037;-64
2022/04/05 09:49:13;;;;;;;8.50;6.18;;;7.40;74.10;;;5.62;80.79;95437.03;4989091;28;20041;-64
2022/04/05 09:51:46;;;;;;;10.43;6.55;;;7.50;73.90;;;5.62;81.14;95436.22;4983398;28;20042;-64
2022/04/05 09:54:30;;;;;;;9.93;6.60;;;7.50;74.00;;;5.69;80.93;95440.59;4985517;28;20131;-64
2022/04/05 09:57:06;;;;;;;9.02;6.18;;;7.60;74.50;;;5.71;80.71;95435.19;4974771;28;20041;-64
2022/04/05 09:59:41;;;;;;;8.75;6.50;;;7.60;73.20;;;5.74;80.68;95445.28;4973771;28;20064;-64
2022/04/05 10:02:16;;;;;;;7.95;5.70;;;7.60;73.20;;;5.80;80.31;95439.34;4983330;28;20068;-64
2022/04/05 10:05:18;;;;;;;7.93;5.97;;;7.80;72.80;;;5.89;80.07;95435.72;4958006;28;20049;-64
2022/04/05 10:07:45;;;;;;;8.18;6.30;;;8.00;72.80;;;5.95;79.68;95437.63;4915757;29;20043;-64
2022/04/05 10:10:12;;;;;;;8.45;6.03;;;8.00;72.00;;;6.02;79.73;95449.00;4977316;28;20553;-64
2022/04/05 10:12:37;;;;;;;6.20;5.30;;;8.00;71.50;;;6.08;79.48;95448.28;4957342;28;20505;-64
2022/04/05 10:15:04;;;;;;;7.22;5.55;;;8.10;71.40;;;6.15;78.82;95445.78;4951662;28;20048;-64
2022/04/05 10:17:29;;;;;;;8.75;6.10;;;8.20;71.80;;;6.24;79.38;95447.31;5004434;28;20061;-67
2022/04/05 10:19:56;;;;;;;7.50;5.63;;;8.30;71.20;;;6.29;79.04;95455.44;4972560;28;20140;-64
2022/04/05 10:22:25;;;;;;;7.68;5.85;;;8.20;71.40;;;6.30;78.67;95446.59;4973279;28;20025;-64
2022/04/05 10:24:52;;;;;;;7.85;5.47;;;8.20;71.10;;;6.33;78.09;95441.00;4974412;28;20056;-64
2022/04/05 10:27:18;;;;;;;6.88;5.40;;;8.20;70.90;;;6.38;78.20;95459.59;4975272;28;20026;-65
2022/04/05 10:29:45;;;;;;;6.40;5.13;;;8.30;71.90;;;6.41;78.23;95442.75;5002688;28;20283;-64